Shelbyville, Tennessee
Current Conditions -  °F | °C
As of 11:35 PM on Wednesday 26 Nov 2014 (Local Time) from KSYI Reporting Station
Scattered Clouds Scattered Clouds  
Wind Chill: 34°   Ceiling: Unl
Heat Index: 39°   Visibility: 10mi
Dew Point: 34°   Wind: 8mph
Humidity: 81%   Direction: 290°WNW
Pressure: 30.1"   Gusts: NA
Location:  35.48°N, 86.46°W
Report Text: KSYI 270535Z AUTO 29007KT 10SM SCT024 04/01 A3010 RMK
Loading
Personal Weather Stations






























Interactive Weather Map New forecast layout! Learn more

10-Day Weather Forecast

Advertisements
Track Severe Weather on mobile